Shreveport Regional Airport Shreveport US
ICAO: KSHV
IATA: SHV
Category: Large
Scheduled Services: Yes

Elevation: 258 ft
TransAlt. 18000 ft.

Airport Communications:
APP/DEP:119.9
ATIS:128.45
CLNC DEL:124.65
GND:121.9
TWR:121.4
UNICOM:122.95

KSHV Zoom In..

If you have problems with the map follow the link
https://www.worldairports.se/pages/airport.php?
ICAO=KSHV

Runways:

(A) RW 06 length 6202 ft width 150 ft
LOC 109.10 / hdg 57

(B) RW 14 length 8351 ft width 200 ft
ILS 110.70 / hdg 139

(C) RW 24 length 6202 ft width 150 ft
LOC 109.10 / hdg 237

(D) RW 32 length 8351 ft width 200 ft
ILS 110.30 / hdg 319

Location; KSHV
Day. 19 / Time. 17.56 Zulu
* Altimeter: 30.52
* Temperature: 11° c. 51.8°f.
* Wind from: 040° Speed 08 kn.
Dewpoint: -06° c.
Visibility: 10 Statute Miles.
Clouds: Few 14000 ft.

KSHV 191756Z 04008KT 10SM FEW140 11/M06 A3052 RMK AO2 SLP335 T01061056 10111 20028 58001 $


Wind From 040°
Speed 08 kn.

 
 
jpsmedia worldairports.se 2020   terms of use